createdAt,value
2018-02-21T00:01:27.614Z,101704.09
2018-02-21T00:03:56.030Z,101703.03
2018-02-21T00:06:24.371Z,101713.04
2018-02-21T00:08:52.722Z,101703.45
2018-02-21T00:11:21.157Z,101706.80
2018-02-21T00:13:49.542Z,101706.18
2018-02-21T00:16:17.866Z,101698.45
2018-02-21T00:18:46.221Z,101694.77
2018-02-21T00:21:14.557Z,101699.44
2018-02-21T00:23:42.946Z,101699.56
2018-02-21T00:26:11.376Z,101700.35
2018-02-21T00:28:39.798Z,101700.38
2018-02-21T00:31:08.183Z,101702.80
2018-02-21T00:33:36.538Z,101704.37
2018-02-21T00:36:04.870Z,101705.73
2018-02-21T00:38:33.221Z,101707.98
2018-02-21T00:41:01.554Z,101716.19
2018-02-21T00:43:29.963Z,101725.41
2018-02-21T00:45:58.294Z,101726.13
2018-02-21T00:48:26.649Z,101731.09
2018-02-21T00:50:54.977Z,101731.54
2018-02-21T00:53:23.334Z,101733.60
2018-02-21T00:55:51.750Z,101724.24
2018-02-21T00:58:20.110Z,101716.78
2018-02-21T01:00:48.503Z,101705.38
2018-02-21T01:03:16.877Z,101697.34
2018-02-21T01:05:45.259Z,101700.53
2018-02-21T01:08:13.614Z,101710.61
2018-02-21T01:10:41.941Z,101704.19
2018-02-21T01:13:10.385Z,101707.30
2018-02-21T01:15:38.727Z,101720.97
2018-02-21T01:18:07.138Z,101719.38
2018-02-21T01:20:35.473Z,101717.66
2018-02-21T01:23:03.822Z,101719.03
2018-02-21T01:25:32.158Z,101719.59
2018-02-21T01:28:00.550Z,101710.59
2018-02-21T01:30:28.930Z,101718.43
2018-02-21T01:32:57.278Z,101713.73
2018-02-21T01:35:25.682Z,101705.97
2018-02-21T01:37:54.039Z,101705.09
2018-02-21T01:40:22.361Z,101709.34
2018-02-21T01:42:50.718Z,101714.77
2018-02-21T01:45:19.046Z,101719.17
2018-02-21T01:47:47.466Z,101718.23
2018-02-21T01:50:15.839Z,101719.19
2018-02-21T01:52:44.174Z,101712.39
2018-02-21T01:55:12.600Z,101711.24
2018-02-21T01:57:40.974Z,101712.13
2018-02-21T02:00:09.354Z,101710.61
2018-02-21T02:02:37.686Z,101709.15
2018-02-21T02:05:06.105Z,101711.31
2018-02-21T02:07:34.446Z,101708.41
2018-02-21T02:10:02.869Z,101708.46
2018-02-21T02:12:31.211Z,101707.87
2018-02-21T02:14:59.553Z,101699.47
2018-02-21T02:17:27.994Z,101700.29
2018-02-21T02:19:56.350Z,101713.48
2018-02-21T02:22:24.750Z,101723.21
2018-02-21T02:24:53.106Z,101737.11
2018-02-21T02:27:21.506Z,101724.36
2018-02-21T02:29:49.853Z,101727.66
2018-02-21T02:32:18.261Z,101721.97
2018-02-21T02:34:46.638Z,101729.84
2018-02-21T02:37:14.978Z,101735.09
2018-02-21T02:39:50.254Z,101744.66
2018-02-21T02:42:18.594Z,101748.42
2018-02-21T02:44:47.010Z,101751.39
2018-02-21T02:47:15.338Z,101759.70
2018-02-21T02:49:43.759Z,101760.06
2018-02-21T02:52:12.189Z,101759.84
2018-02-21T02:54:40.529Z,101748.00
2018-02-21T02:57:08.898Z,101739.31
2018-02-21T02:59:37.249Z,101745.84
2018-02-21T03:02:05.646Z,101752.36
2018-02-21T03:04:33.996Z,101743.67
2018-02-21T03:07:02.399Z,101753.03
2018-02-21T03:09:30.774Z,101754.98
2018-02-21T03:11:59.156Z,101761.70
2018-02-21T03:14:27.515Z,101761.05
2018-02-21T03:16:55.910Z,101767.84
2018-02-21T03:19:24.285Z,101765.25
2018-02-21T03:21:52.613Z,101776.44
2018-02-21T03:24:21.038Z,101766.36
2018-02-21T03:26:49.413Z,101775.80
2018-02-21T03:29:17.771Z,101770.28
2018-02-21T03:31:46.101Z,101777.42
2018-02-21T03:34:14.545Z,101778.41
2018-02-21T03:36:42.884Z,101779.30
2018-02-21T03:39:11.242Z,101779.31
2018-02-21T03:41:39.566Z,101778.80
2018-02-21T03:44:07.921Z,101771.18
2018-02-21T03:46:36.249Z,101769.47
2018-02-21T03:49:04.710Z,101769.58
2018-02-21T03:51:33.056Z,101776.04
2018-02-21T03:54:01.406Z,101777.37
2018-02-21T03:56:29.769Z,101791.81
2018-02-21T03:58:58.118Z,101787.81
2018-02-21T04:01:26.489Z,101775.39
2018-02-21T04:03:54.868Z,101774.44
2018-02-21T04:06:23.245Z,101789.13
2018-02-21T04:08:51.580Z,101788.00
2018-02-21T04:11:19.934Z,101793.98
2018-02-21T04:13:48.284Z,101793.62
2018-02-21T04:16:16.630Z,101792.86
2018-02-21T04:18:45.031Z,101791.64
2018-02-21T04:21:13.387Z,101794.44
2018-02-21T04:23:41.718Z,101804.60
2018-02-21T04:26:10.071Z,101802.53
2018-02-21T04:28:38.399Z,101804.55
2018-02-21T04:31:06.753Z,101795.25
2018-02-21T04:33:35.143Z,101801.69
2018-02-21T04:36:03.493Z,101795.63
2018-02-21T04:38:31.845Z,101799.66
2018-02-21T04:41:00.197Z,101802.22
2018-02-21T04:43:28.601Z,101800.77
2018-02-21T04:45:56.967Z,101805.09
2018-02-21T04:48:25.349Z,101803.39
2018-02-21T04:50:53.733Z,101804.52
2018-02-21T04:53:22.066Z,101801.29
2018-02-21T04:59:02.769Z,101790.84
2018-02-21T05:01:31.117Z,101791.95
2018-02-21T05:03:59.450Z,101787.73
2018-02-21T05:06:27.814Z,101786.09
2018-02-21T05:08:56.137Z,101786.03
2018-02-21T05:11:24.582Z,101783.45
2018-02-21T05:13:52.959Z,101785.20
2018-02-21T05:16:21.333Z,101780.81
2018-02-21T05:18:49.674Z,101775.20
2018-02-21T05:21:18.018Z,101787.49
2018-02-21T05:23:46.361Z,101780.13
2018-02-21T05:26:14.719Z,101782.00
2018-02-21T05:28:43.045Z,101786.41
2018-02-21T05:31:11.494Z,101785.11
2018-02-21T05:33:39.874Z,101785.95
2018-02-21T05:36:08.226Z,101787.73
2018-02-21T05:38:36.629Z,101790.31
2018-02-21T05:41:04.993Z,101791.92
2018-02-21T05:43:33.385Z,101792.28
2018-02-21T05:46:01.784Z,101794.80
2018-02-21T05:48:30.097Z,101801.31
2018-02-21T05:50:58.521Z,101799.43
2018-02-21T05:53:26.890Z,101797.98
2018-02-21T05:55:55.245Z,101792.05
2018-02-21T05:58:23.671Z,101799.50
2018-02-21T06:00:53.005Z,101797.25
2018-02-21T06:03:21.422Z,101791.98
2018-02-21T06:05:49.802Z,101794.99
2018-02-21T06:08:18.134Z,101796.71
2018-02-21T06:10:46.496Z,101812.11
2018-02-21T06:13:14.933Z,101813.27
2018-02-21T06:15:43.298Z,101823.73
2018-02-21T06:18:11.692Z,101827.69
2018-02-21T06:20:41.021Z,101826.66
2018-02-21T06:23:09.570Z,101820.86
2018-02-21T06:25:37.927Z,101820.00
2018-02-21T06:28:07.475Z,101825.33
2018-02-21T06:30:35.927Z,101843.20
2018-02-21T06:33:04.265Z,101846.57
2018-02-21T06:35:32.682Z,101860.03
2018-02-21T06:38:01.071Z,101860.66
2018-02-21T06:40:29.423Z,101878.89
2018-02-21T06:42:57.775Z,101883.14
2018-02-21T06:45:26.106Z,101888.00
2018-02-21T06:47:54.462Z,101873.77
2018-02-21T06:50:22.802Z,101863.20
2018-02-21T06:52:51.162Z,101866.00
2018-02-21T06:55:19.498Z,101862.39
2018-02-21T06:57:47.849Z,101861.89
2018-02-21T07:00:17.008Z,101864.77
2018-02-21T07:02:45.593Z,101864.69
2018-02-21T07:05:13.946Z,101870.16
2018-02-21T07:07:42.405Z,101865.27
2018-02-21T07:10:10.746Z,101864.61
2018-02-21T07:12:39.107Z,101867.22
2018-02-21T07:15:07.446Z,101866.58
2018-02-21T07:17:35.811Z,101867.75
2018-02-21T07:20:04.141Z,101856.38
2018-02-21T07:22:32.505Z,101858.41
2018-02-21T07:25:00.844Z,101850.75
2018-02-21T07:27:29.223Z,101854.83
2018-02-21T07:29:57.569Z,101856.20
2018-02-21T07:32:26.932Z,101853.77
2018-02-21T07:34:55.259Z,101849.59
2018-02-21T07:37:23.618Z,101849.66
2018-02-21T07:39:52.031Z,101841.53
2018-02-21T07:42:20.405Z,101841.57
2018-02-21T07:44:48.745Z,101833.67
2018-02-21T07:47:17.738Z,101826.84
2018-02-21T07:49:46.078Z,101833.37
2018-02-21T07:52:14.428Z,101829.23
2018-02-21T07:54:42.807Z,101828.46
2018-02-21T07:57:11.162Z,101823.67
2018-02-21T07:59:39.553Z,101820.26
2018-02-21T08:02:07.918Z,101820.42
2018-02-21T08:04:36.249Z,101828.19
2018-02-21T08:07:05.402Z,101819.59
2018-02-21T08:09:33.737Z,101828.55
2018-02-21T08:12:02.172Z,101832.57
2018-02-21T08:14:30.542Z,101831.71
2018-02-21T08:16:58.922Z,101837.26
2018-02-21T08:19:27.296Z,101841.97
2018-02-21T08:21:55.670Z,101845.31
2018-02-21T08:24:24.060Z,101850.80
2018-02-21T08:26:52.410Z,101849.27
2018-02-21T08:29:20.746Z,101848.27
2018-02-21T08:31:49.107Z,101861.80
2018-02-21T08:34:17.450Z,101866.09
2018-02-21T08:36:45.802Z,101870.09
2018-02-21T08:39:14.206Z,101867.48
2018-02-21T08:41:42.562Z,101865.66
2018-02-21T08:44:10.966Z,101870.81
2018-02-21T08:46:39.345Z,101874.28
2018-02-21T08:49:07.717Z,101881.09
2018-02-21T08:51:36.054Z,101875.06
2018-02-21T08:54:04.469Z,101877.74
2018-02-21T08:56:32.811Z,101881.48
2018-02-21T08:59:01.161Z,101882.91
2018-02-21T09:01:29.494Z,101885.41
2018-02-21T09:03:57.860Z,101886.75
2018-02-21T09:06:26.258Z,101882.22
2018-02-21T09:08:54.634Z,101889.75
2018-02-21T09:11:23.010Z,101882.00
2018-02-21T09:13:51.362Z,101886.44
2018-02-21T09:16:19.693Z,101879.96
2018-02-21T09:18:48.055Z,101883.20
2018-02-21T09:21:16.390Z,101886.38
2018-02-21T09:23:44.754Z,101893.78
2018-02-21T09:26:13.166Z,101895.38
2018-02-21T09:28:41.531Z,101893.31
2018-02-21T09:31:09.865Z,101896.09
2018-02-21T09:33:38.306Z,101894.00
2018-02-21T09:36:06.642Z,101898.50
2018-02-21T09:38:35.054Z,101892.68
2018-02-21T09:41:03.389Z,101902.31
2018-02-21T09:43:31.812Z,101908.28
2018-02-21T09:46:00.146Z,101906.25
2018-02-21T09:48:28.563Z,101907.61
2018-02-21T09:50:56.942Z,101910.00
2018-02-21T09:53:25.322Z,101913.95
2018-02-21T09:55:53.642Z,101907.48
2018-02-21T09:58:22.069Z,101907.56
2018-02-21T10:00:50.399Z,101905.92
2018-02-21T10:03:18.836Z,101906.89
2018-02-21T10:05:47.209Z,101909.91
2018-02-21T10:08:15.558Z,101908.70
2018-02-21T10:10:44.010Z,101902.84
2018-02-21T10:13:12.318Z,101903.81
2018-02-21T10:15:40.648Z,101903.41
2018-02-21T10:18:09.143Z,101905.55
2018-02-21T10:20:37.467Z,101913.88
2018-02-21T10:23:05.821Z,101907.00
2018-02-21T10:25:34.217Z,101914.62
2018-02-21T10:28:02.565Z,101913.11
2018-02-21T10:30:30.894Z,101908.73
2018-02-21T10:32:59.240Z,101903.12
2018-02-21T10:35:27.578Z,101901.95
2018-02-21T10:37:55.922Z,101901.23
2018-02-21T10:40:24.249Z,101905.09
2018-02-21T10:42:52.608Z,101904.30
2018-02-21T10:45:20.938Z,101900.03
2018-02-21T10:47:49.297Z,101889.16
2018-02-21T10:50:17.629Z,101888.88
2018-02-21T10:52:45.966Z,101878.88
2018-02-21T10:55:14.317Z,101878.54
2018-02-21T10:57:42.654Z,101881.84
2018-02-21T11:00:11.002Z,101879.24
2018-02-21T11:02:40.338Z,101880.75
2018-02-21T11:05:08.678Z,101880.38
2018-02-21T11:07:37.008Z,101883.95
2018-02-21T11:10:05.353Z,101875.80
2018-02-21T11:12:33.680Z,101880.20
2018-02-21T11:15:02.053Z,101881.08
2018-02-21T11:17:30.394Z,101879.35
2018-02-21T11:19:58.743Z,101880.06
2018-02-21T11:22:27.354Z,101880.00
2018-02-21T11:24:55.701Z,101882.53
2018-02-21T11:27:24.030Z,101884.30
2018-02-21T11:29:52.382Z,101889.12
2018-02-21T11:32:20.706Z,101883.48
2018-02-21T11:34:49.062Z,101883.17
2018-02-21T11:37:17.399Z,101885.31
2018-02-21T11:39:45.750Z,101876.24
2018-02-21T11:42:14.895Z,101871.50
2018-02-21T11:44:43.291Z,101874.97
2018-02-21T11:47:11.643Z,101875.84
2018-02-21T11:49:39.994Z,101875.77
2018-02-21T11:52:08.317Z,101870.98
2018-02-21T11:54:36.665Z,101875.84
2018-02-21T11:57:04.992Z,101877.20
2018-02-21T11:59:33.346Z,101878.95
2018-02-21T12:02:01.691Z,101875.90
2018-02-21T12:04:30.039Z,101872.46
2018-02-21T12:06:58.367Z,101874.66
2018-02-21T12:09:26.713Z,101867.23
2018-02-21T12:11:55.043Z,101866.85
2018-02-21T12:14:23.393Z,101860.08
2018-02-21T12:16:51.734Z,101872.31
2018-02-21T12:19:20.201Z,101865.25
2018-02-21T12:21:48.538Z,101872.31
2018-02-21T12:24:16.877Z,101862.16
2018-02-21T12:26:45.214Z,101863.96
2018-02-21T12:29:13.557Z,101859.99
2018-02-21T12:31:41.895Z,101850.84
2018-02-21T12:34:10.234Z,101850.90
2018-02-21T12:36:38.566Z,101843.96
2018-02-21T12:39:12.647Z,101850.06
2018-02-21T12:41:42.910Z,101839.59
2018-02-21T12:44:11.274Z,101843.09
2018-02-21T12:46:39.597Z,101847.48
2018-02-21T12:49:07.946Z,101844.81
2018-02-21T12:51:36.460Z,101846.14
2018-02-21T12:54:04.816Z,101841.42
2018-02-21T12:56:33.143Z,101841.47
2018-02-21T12:59:01.481Z,101839.72
2018-02-21T13:01:29.848Z,101836.67
2018-02-21T13:03:58.165Z,101841.09
2018-02-21T13:06:26.509Z,101844.17
2018-02-21T13:08:54.838Z,101839.83
2018-02-21T13:11:23.194Z,101838.07
2018-02-21T13:13:51.573Z,101841.59
2018-02-21T13:16:19.910Z,101838.53
2018-02-21T13:18:48.244Z,101835.47
2018-02-21T13:21:16.659Z,101836.75
2018-02-21T13:23:44.954Z,101835.86
2018-02-21T13:26:13.310Z,101836.28
2018-02-21T13:28:41.641Z,101831.41
2018-02-21T13:31:10.007Z,101830.94
2018-02-21T13:33:38.342Z,101823.05
2018-02-21T13:36:06.694Z,101825.71
2018-02-21T13:38:35.035Z,101823.99
2018-02-21T13:41:03.383Z,101825.74
2018-02-21T13:43:31.834Z,101821.41
2018-02-21T13:46:00.195Z,101815.31
2018-02-21T13:48:28.525Z,101815.30
2018-02-21T13:50:56.879Z,101812.23
2018-02-21T13:53:25.205Z,101814.89
2018-02-21T13:55:53.553Z,101807.89
2018-02-21T13:58:21.887Z,101803.52
2018-02-21T14:00:50.239Z,101809.64
2018-02-21T14:03:18.564Z,101807.45
2018-02-21T14:05:46.912Z,101809.61
2018-02-21T14:08:15.247Z,101807.44
2018-02-21T14:10:43.593Z,101799.56
2018-02-21T14:13:11.933Z,101800.85
2018-02-21T14:15:40.305Z,101799.98
2018-02-21T14:18:08.636Z,101796.94
2018-02-21T14:20:36.986Z,101790.38
2018-02-21T14:23:05.358Z,101786.84
2018-02-21T14:25:33.804Z,101786.88
2018-02-21T14:28:02.174Z,101785.98
2018-02-21T14:30:30.593Z,101774.16
2018-02-21T14:32:58.949Z,101781.61
2018-02-21T14:35:27.439Z,101783.79
2018-02-21T14:37:55.813Z,101777.66
2018-02-21T14:40:24.436Z,101778.50
2018-02-21T14:42:52.778Z,101778.51
2018-02-21T14:45:21.723Z,101773.27
2018-02-21T14:47:51.853Z,101764.55
2018-02-21T14:50:20.261Z,101767.17
2018-02-21T14:52:48.611Z,101775.02
2018-02-21T14:55:17.127Z,101780.27
2018-02-21T14:57:45.451Z,101777.24
2018-02-21T15:00:13.818Z,101781.59
2018-02-21T15:02:42.557Z,101782.45
2018-02-21T15:05:10.861Z,101777.22
2018-02-21T15:07:39.359Z,101772.84
2018-02-21T15:10:07.687Z,101774.59
2018-02-21T15:12:36.225Z,101782.89
2018-02-21T15:15:04.558Z,101782.42
2018-02-21T15:17:32.939Z,101776.25
2018-02-21T15:20:01.271Z,101779.30
2018-02-21T15:22:29.622Z,101775.90
2018-02-21T15:24:57.947Z,101772.37
2018-02-21T15:27:26.303Z,101769.67
2018-02-21T15:29:54.692Z,101771.89
2018-02-21T15:32:23.257Z,101770.11
2018-02-21T15:34:51.610Z,101770.95
2018-02-21T15:37:19.966Z,101770.09
2018-02-21T15:39:49.425Z,101767.45
2018-02-21T15:42:19.260Z,101768.74
2018-02-21T15:44:48.081Z,101763.92
2018-02-21T15:47:16.913Z,101763.06
2018-02-21T15:49:46.403Z,101770.03
2018-02-21T15:52:15.950Z,101766.11
2018-02-21T15:54:45.599Z,101764.80
2018-02-21T15:57:14.327Z,101761.75
2018-02-21T15:59:44.129Z,101763.09
2018-02-21T16:02:12.925Z,101765.28
2018-02-21T16:04:41.609Z,101766.13
2018-02-21T16:07:11.218Z,101763.96
2018-02-21T16:09:40.413Z,101766.97
2018-02-21T16:12:09.814Z,101774.81
2018-02-21T16:14:38.605Z,101770.40
2018-02-21T16:17:07.413Z,101769.95
2018-02-21T16:19:36.276Z,101766.04
2018-02-21T16:22:05.081Z,101771.70
2018-02-21T16:24:33.747Z,101770.31
2018-02-21T16:27:02.601Z,101775.21
2018-02-21T16:29:31.423Z,101773.88
2018-02-21T16:32:01.210Z,101775.98
2018-02-21T16:34:30.122Z,101783.41
2018-02-21T16:36:59.809Z,101783.42
2018-02-21T16:39:28.743Z,101787.22
2018-02-21T16:41:57.712Z,101783.65
2018-02-21T16:44:27.517Z,101777.07
2018-02-21T16:46:56.899Z,101785.67
2018-02-21T16:49:25.807Z,101786.09
2018-02-21T16:51:54.929Z,101783.43
2018-02-21T16:54:23.881Z,101787.72
2018-02-21T16:56:52.799Z,101795.14
2018-02-21T16:59:21.774Z,101792.94
2018-02-21T17:01:50.875Z,101798.16
2018-02-21T17:04:19.410Z,101792.84
2018-02-21T17:06:47.757Z,101802.00
2018-02-21T17:09:16.100Z,101805.90
2018-02-21T17:11:44.487Z,101810.76
2018-02-21T17:14:12.807Z,101810.23
2018-02-21T17:16:41.906Z,101812.36
2018-02-21T17:19:10.241Z,101810.34
2018-02-21T17:21:38.653Z,101810.34
2018-02-21T17:24:07.062Z,101810.73
2018-02-21T17:26:35.514Z,101809.57
2018-02-21T17:29:03.866Z,101807.78
2018-02-21T17:31:32.191Z,101812.08
2018-02-21T17:34:00.893Z,101815.98
2018-02-21T17:36:29.238Z,101818.17
2018-02-21T17:38:57.581Z,101819.84
2018-02-21T17:41:31.650Z,101827.31
2018-02-21T17:44:00.022Z,101828.23
2018-02-21T17:46:28.482Z,101829.53
2018-02-21T17:48:56.850Z,101835.17
2018-02-21T17:51:25.173Z,101828.52
2018-02-21T17:53:53.598Z,101831.61
2018-02-21T17:56:21.933Z,101836.85
2018-02-21T17:58:50.296Z,101833.86
2018-02-21T18:01:18.611Z,101836.09
2018-02-21T18:03:47.018Z,101836.52
2018-02-21T18:06:15.358Z,101831.71
2018-02-21T18:08:43.766Z,101832.97
2018-02-21T18:11:12.098Z,101832.22
2018-02-21T18:13:40.469Z,101830.35
2018-02-21T18:16:08.789Z,101831.59
2018-02-21T18:18:37.138Z,101829.87
2018-02-21T18:21:05.478Z,101828.07
2018-02-21T18:23:33.862Z,101825.08
2018-02-21T18:26:02.250Z,101831.23
2018-02-21T18:28:30.679Z,101829.80
2018-02-21T18:30:59.024Z,101839.45
2018-02-21T18:33:27.401Z,101835.45
2018-02-21T18:35:56.704Z,101831.81
2018-02-21T18:38:25.067Z,101836.05
2018-02-21T18:40:53.486Z,101838.30
2018-02-21T18:43:21.846Z,101835.77
2018-02-21T18:45:50.197Z,101840.98
2018-02-21T18:48:18.590Z,101843.86
2018-02-21T18:50:46.948Z,101842.04
2018-02-21T18:53:15.365Z,101837.19
2018-02-21T18:55:43.783Z,101839.33
2018-02-21T18:58:12.276Z,101836.20
2018-02-21T19:00:40.635Z,101828.73
2018-02-21T19:03:09.083Z,101833.06
2018-02-21T19:05:37.412Z,101832.59
2018-02-21T19:08:05.889Z,101835.72
2018-02-21T19:10:34.313Z,101834.02
2018-02-21T19:13:02.684Z,101836.80
2018-02-21T19:15:31.069Z,101838.49
2018-02-21T19:17:59.425Z,101847.69
2018-02-21T19:20:27.787Z,101836.31
2018-02-21T19:22:56.227Z,101843.31
2018-02-21T19:25:24.643Z,101844.20
2018-02-21T19:27:53.032Z,101844.09
2018-02-21T19:30:21.442Z,101842.17
2018-02-21T19:32:49.814Z,101842.23
2018-02-21T19:35:18.201Z,101845.80
2018-02-21T19:37:46.609Z,101853.16
2018-02-21T19:40:15.016Z,101856.23
2018-02-21T19:42:43.402Z,101854.08
2018-02-21T19:45:12.007Z,101861.59
2018-02-21T19:47:40.424Z,101856.70
2018-02-21T19:50:08.788Z,101854.98
2018-02-21T19:52:37.111Z,101862.34
2018-02-21T19:55:05.522Z,101856.04
2018-02-21T19:57:33.900Z,101863.91
2018-02-21T20:00:02.239Z,101858.32
2018-02-21T20:02:30.589Z,101858.36
2018-02-21T20:04:58.946Z,101857.05
2018-02-21T20:07:27.266Z,101864.03
2018-02-21T20:09:55.673Z,101873.19
2018-02-21T20:12:24.057Z,101877.48
2018-02-21T20:14:52.436Z,101874.42
2018-02-21T20:17:20.834Z,101871.73
2018-02-21T20:19:49.296Z,101873.16
2018-02-21T20:22:17.872Z,101874.48
2018-02-21T20:24:46.298Z,101871.28
2018-02-21T20:27:14.622Z,101874.91
2018-02-21T20:29:43.006Z,101873.27
2018-02-21T20:32:11.378Z,101877.11
2018-02-21T20:34:39.782Z,101890.44
2018-02-21T20:37:08.134Z,101885.25
2018-02-21T20:39:36.496Z,101888.30
2018-02-21T20:42:04.822Z,101896.19
2018-02-21T20:44:33.266Z,101894.94
2018-02-21T20:47:02.521Z,101890.13
2018-02-21T20:49:30.898Z,101886.09
2018-02-21T20:51:59.318Z,101893.52
2018-02-21T20:54:27.697Z,101893.48
2018-02-21T20:56:56.179Z,101892.27
2018-02-21T20:59:24.533Z,101893.64
2018-02-21T21:01:52.926Z,101894.40
2018-02-21T21:04:21.310Z,101889.19
2018-02-21T21:06:53.067Z,101892.23
2018-02-21T21:09:21.513Z,101894.77
2018-02-21T21:11:49.850Z,101883.91
2018-02-21T21:14:18.198Z,101889.55
2018-02-21T21:16:46.530Z,101893.44
2018-02-21T21:19:15.418Z,101901.63
2018-02-21T21:21:43.749Z,101902.94
2018-02-21T21:24:12.217Z,101908.06
2018-02-21T21:26:40.543Z,101897.74
2018-02-21T21:29:08.965Z,101898.69
2018-02-21T21:31:37.306Z,101894.33
2018-02-21T21:34:05.727Z,101892.70
2018-02-21T21:36:35.002Z,101898.41
2018-02-21T21:39:03.334Z,101896.70
2018-02-21T21:41:31.693Z,101905.67
2018-02-21T21:44:00.018Z,101903.80
2018-02-21T21:46:28.421Z,101898.65
2018-02-21T21:48:56.808Z,101897.32
2018-02-21T21:51:25.198Z,101898.94
2018-02-21T21:53:53.530Z,101899.49
2018-02-21T21:56:21.885Z,101896.84
2018-02-21T21:58:50.217Z,101893.74
2018-02-21T22:01:18.578Z,101898.80
2018-02-21T22:03:46.962Z,101904.36
2018-02-21T22:06:15.321Z,101897.50
2018-02-21T22:08:43.651Z,101900.77
2018-02-21T22:11:11.993Z,101896.03
2018-02-21T22:13:40.325Z,101900.35
2018-02-21T22:16:08.677Z,101900.66
2018-02-21T22:18:37.473Z,101897.73
2018-02-21T22:21:05.813Z,101891.08
2018-02-21T22:23:34.145Z,101896.37
2018-02-21T22:26:02.493Z,101890.19
2018-02-21T22:28:30.845Z,101895.27
2018-02-21T22:30:59.236Z,101890.47
2018-02-21T22:33:27.559Z,101887.75
2018-02-21T22:35:55.971Z,101888.21
2018-02-21T22:38:24.295Z,101891.97
2018-02-21T22:40:52.638Z,101894.09
2018-02-21T22:43:20.994Z,101891.91
2018-02-21T22:45:49.382Z,101893.33
2018-02-21T22:48:17.705Z,101895.00
2018-02-21T22:50:46.058Z,101890.98
2018-02-21T22:53:14.389Z,101897.39
2018-02-21T22:55:42.782Z,101898.61
2018-02-21T22:58:11.110Z,101898.09
2018-02-21T23:00:39.534Z,101893.75
2018-02-21T23:03:07.909Z,101900.12
2018-02-21T23:05:36.254Z,101897.09
2018-02-21T23:08:04.666Z,101895.33
2018-02-21T23:10:33.050Z,101897.78
2018-02-21T23:13:01.373Z,101890.83
2018-02-21T23:15:29.737Z,101891.59
2018-02-21T23:17:58.061Z,101897.15
2018-02-21T23:20:26.405Z,101892.38
2018-02-21T23:22:54.730Z,101886.66
2018-02-21T23:25:23.102Z,101896.66
2018-02-21T23:27:51.430Z,101897.14
2018-02-21T23:30:19.777Z,101889.31
2018-02-21T23:32:48.135Z,101893.69
2018-02-21T23:35:16.510Z,101890.66
2018-02-21T23:37:44.886Z,101897.50
2018-02-21T23:40:13.220Z,101897.49
2018-02-21T23:42:41.561Z,101895.22
2018-02-21T23:45:09.885Z,101891.16
2018-02-21T23:47:38.295Z,101895.06
2018-02-21T23:50:06.625Z,101902.89
2018-02-21T23:52:34.974Z,101899.34
2018-02-21T23:55:03.320Z,101898.13
2018-02-21T23:57:31.701Z,101895.61
